createdAt,value
2022-08-21T00:00:44.182Z,44.10
2022-08-21T00:03:14.750Z,39.80
2022-08-21T00:05:50.335Z,42.47
2022-08-21T00:08:20.296Z,41.95
2022-08-21T00:10:50.749Z,40.97
2022-08-21T00:13:21.758Z,46.33
2022-08-21T00:18:22.031Z,44.60
2022-08-21T00:20:53.636Z,41.60
2022-08-21T00:25:52.000Z,37.63
2022-08-21T00:28:21.437Z,37.15
2022-08-21T00:30:50.616Z,39.03
2022-08-21T00:33:19.763Z,38.42
2022-08-21T00:35:49.201Z,41.67
2022-08-21T00:38:21.300Z,43.22
2022-08-21T00:40:53.662Z,43.90
2022-08-21T00:43:26.657Z,40.03
2022-08-21T00:45:56.407Z,41.53
2022-08-21T00:48:28.845Z,36.70
2022-08-21T00:51:02.605Z,41.25
2022-08-21T00:53:34.661Z,38.08
2022-08-21T00:56:06.780Z,36.55
2022-08-21T00:58:37.910Z,38.42
2022-08-21T01:01:09.852Z,38.93
2022-08-21T01:03:39.856Z,37.53
2022-08-21T01:06:15.503Z,38.67
2022-08-21T01:08:47.810Z,39.40
2022-08-21T01:11:18.187Z,37.10
2022-08-21T01:13:48.972Z,39.95
2022-08-21T01:16:24.056Z,39.60
2022-08-21T01:18:54.120Z,36.40
2022-08-21T01:21:28.387Z,41.83
2022-08-21T01:23:59.587Z,44.38
2022-08-21T01:26:33.932Z,37.38
2022-08-21T01:29:07.804Z,39.30
2022-08-21T01:31:37.717Z,35.47
2022-08-21T01:34:07.616Z,37.40
2022-08-21T01:36:39.462Z,38.50
2022-08-21T01:41:38.985Z,36.75
2022-08-21T01:44:08.436Z,36.28
2022-08-21T01:46:38.049Z,38.92
2022-08-21T01:49:08.145Z,37.22
2022-08-21T01:51:39.216Z,38.55
2022-08-21T01:54:08.505Z,34.15
2022-08-21T01:56:40.703Z,39.03
2022-08-21T01:59:10.344Z,35.90
2022-08-21T02:01:40.065Z,39.83
2022-08-21T02:04:10.638Z,43.28
2022-08-21T02:06:41.849Z,39.22
2022-08-21T02:09:14.577Z,38.42
2022-08-21T02:11:45.136Z,39.28
2022-08-21T02:14:32.392Z,36.20
2022-08-21T02:17:05.311Z,39.60
2022-08-21T02:19:40.709Z,40.47
2022-08-21T02:22:13.671Z,37.60
2022-08-21T02:24:53.851Z,36.83
2022-08-21T02:27:26.786Z,40.60
2022-08-21T02:32:26.699Z,42.33
2022-08-21T02:34:56.210Z,39.40
2022-08-21T02:37:27.589Z,41.80
2022-08-21T02:39:58.647Z,38.72
2022-08-21T02:42:28.238Z,43.28
2022-08-21T02:44:58.057Z,41.13
2022-08-21T02:47:27.182Z,37.95
2022-08-21T02:49:56.392Z,42.10
2022-08-21T02:52:27.743Z,44.42
2022-08-21T02:54:57.149Z,39.42
2022-08-21T02:57:26.277Z,42.78
2022-08-21T02:59:55.864Z,40.90
2022-08-21T03:02:26.575Z,45.55
2022-08-21T03:04:56.446Z,40.47
2022-08-21T03:07:27.724Z,44.78
2022-08-21T03:09:56.893Z,46.05
2022-08-21T03:12:29.669Z,43.38
2022-08-21T03:14:59.407Z,48.53
2022-08-21T03:17:29.735Z,46.47
2022-08-21T03:19:59.969Z,49.13
2022-08-21T03:22:32.686Z,46.80
2022-08-21T03:25:06.381Z,46.58
2022-08-21T03:27:37.000Z,37.63
2022-08-21T03:30:10.860Z,47.70
2022-08-21T03:32:42.215Z,45.58
2022-08-21T03:35:12.519Z,53.83
2022-08-21T03:37:44.247Z,49.85
2022-08-21T03:40:15.325Z,48.38
2022-08-21T03:42:45.834Z,47.40
2022-08-21T03:45:15.299Z,53.25
2022-08-21T03:47:54.035Z,52.80
2022-08-21T03:50:23.454Z,54.33
2022-08-21T03:52:54.625Z,50.53
2022-08-21T03:55:24.089Z,51.47
2022-08-21T03:57:53.867Z,54.03
2022-08-21T04:00:23.965Z,59.35
2022-08-21T04:02:53.571Z,52.63
2022-08-21T04:05:30.690Z,57.78
2022-08-21T04:08:08.547Z,58.33
2022-08-21T04:10:40.343Z,53.97
2022-08-21T04:13:10.576Z,56.47
2022-08-21T04:15:39.739Z,52.67
2022-08-21T04:18:08.937Z,57.05
2022-08-21T04:20:38.167Z,53.85
2022-08-21T04:23:10.053Z,59.90
2022-08-21T04:25:39.345Z,54.20
2022-08-21T04:28:08.418Z,57.30
2022-08-21T04:30:38.259Z,58.83
2022-08-21T04:33:07.908Z,55.22
2022-08-21T04:35:37.090Z,50.88
2022-08-21T04:38:06.254Z,60.20
2022-08-21T04:40:37.417Z,53.08
2022-08-21T04:43:10.632Z,59.63
2022-08-21T04:45:42.792Z,59.00
2022-08-21T04:48:14.391Z,59.10
2022-08-21T04:53:19.158Z,50.08
2022-08-21T04:55:51.749Z,54.67
2022-08-21T04:58:23.325Z,53.35
2022-08-21T05:00:56.797Z,50.88
2022-08-21T05:03:26.899Z,55.75
2022-08-21T05:05:55.972Z,54.78
2022-08-21T05:08:28.670Z,54.15
2022-08-21T05:11:00.743Z,59.42
2022-08-21T05:13:30.638Z,53.67
2022-08-21T05:15:59.837Z,60.47
2022-08-21T05:18:31.382Z,55.05
2022-08-21T05:21:01.041Z,56.13
2022-08-21T05:23:30.116Z,55.80
2022-08-21T05:26:01.649Z,55.78
2022-08-21T05:28:31.403Z,54.47
2022-08-21T05:31:00.505Z,56.08
2022-08-21T05:33:29.851Z,56.90
2022-08-21T05:36:00.752Z,52.13
2022-08-21T05:38:30.187Z,56.97
2022-08-21T05:41:01.352Z,56.78
2022-08-21T05:43:30.507Z,57.97
2022-08-21T05:45:59.617Z,51.85
2022-08-21T05:48:28.819Z,51.67
2022-08-21T05:50:58.022Z,51.92
2022-08-21T05:53:28.069Z,53.15
2022-08-21T05:55:57.176Z,57.95
2022-08-21T05:58:28.583Z,56.50
2022-08-21T06:00:59.240Z,61.60
2022-08-21T06:03:31.185Z,58.73
2022-08-21T06:06:01.350Z,55.67
2022-08-21T06:08:30.767Z,57.88
2022-08-21T06:11:02.136Z,58.03
2022-08-21T06:13:33.351Z,56.58
2022-08-21T06:16:09.309Z,57.10
2022-08-21T06:18:40.104Z,51.35
2022-08-21T06:21:11.927Z,54.03
2022-08-21T06:23:41.278Z,50.95
2022-08-21T06:26:12.564Z,49.85
2022-08-21T06:28:44.488Z,51.45
2022-08-21T06:31:16.409Z,54.95
2022-08-21T06:33:46.406Z,52.40
2022-08-21T06:36:16.107Z,46.70
2022-08-21T06:38:51.678Z,53.17
2022-08-21T06:41:23.809Z,51.60
2022-08-21T06:43:56.015Z,50.47
2022-08-21T06:46:25.723Z,52.03
2022-08-21T06:48:55.121Z,52.17
2022-08-21T06:51:26.212Z,55.33
2022-08-21T06:53:55.437Z,54.45
2022-08-21T06:56:24.698Z,49.47
2022-08-21T06:58:55.961Z,49.00
2022-08-21T07:01:28.184Z,48.20
2022-08-21T07:03:58.354Z,51.80
2022-08-21T07:06:27.609Z,52.63
2022-08-21T07:08:59.015Z,44.67
2022-08-21T07:11:28.822Z,51.67
2022-08-21T07:14:00.002Z,52.03
2022-08-21T07:16:29.423Z,51.60
2022-08-21T07:19:10.031Z,47.58
2022-08-21T07:21:40.474Z,52.25
2022-08-21T07:24:09.783Z,50.55
2022-08-21T07:26:39.326Z,44.15
2022-08-21T07:29:10.476Z,40.15
2022-08-21T07:31:39.798Z,40.85
2022-08-21T07:34:08.961Z,44.97
2022-08-21T07:36:38.209Z,39.25
2022-08-21T07:39:09.114Z,37.97
2022-08-21T07:41:38.170Z,44.70
2022-08-21T07:44:10.384Z,37.50
2022-08-21T07:46:43.933Z,38.60
2022-08-21T07:49:13.174Z,41.08
2022-08-21T07:51:42.554Z,38.95
2022-08-21T07:54:11.793Z,42.78
2022-08-21T07:56:46.470Z,40.22
2022-08-21T07:59:15.670Z,43.67
2022-08-21T08:01:46.873Z,36.10
2022-08-21T08:04:16.926Z,38.58
2022-08-21T08:06:46.343Z,37.00
2022-08-21T08:09:15.796Z,35.47
2022-08-21T08:11:46.182Z,37.97
2022-08-21T08:14:16.232Z,34.47
2022-08-21T08:16:47.266Z,32.13
2022-08-21T08:19:16.482Z,32.72
2022-08-21T08:21:45.689Z,33.53
2022-08-21T08:24:18.415Z,33.05
2022-08-21T08:26:53.914Z,32.00
2022-08-21T08:29:23.915Z,30.10
2022-08-21T08:31:55.178Z,32.22
2022-08-21T08:36:54.993Z,26.42
2022-08-21T08:39:26.978Z,30.17
2022-08-21T08:42:32.850Z,26.55
2022-08-21T08:45:00.290Z,28.30
2022-08-21T08:47:34.441Z,25.17
2022-08-21T08:50:07.366Z,25.83
2022-08-21T08:52:39.702Z,27.33
2022-08-21T08:55:15.374Z,27.88
2022-08-21T08:57:50.301Z,29.33
2022-08-21T09:00:22.585Z,24.58
2022-08-21T09:02:57.637Z,32.53
2022-08-21T09:05:29.189Z,26.10
2022-08-21T09:10:49.395Z,25.83
2022-08-21T09:13:26.727Z,28.98
2022-08-21T09:16:02.784Z,27.20
2022-08-21T09:18:46.186Z,22.83
2022-08-21T09:21:23.600Z,23.98
2022-08-21T09:24:02.997Z,24.60
2022-08-21T09:26:38.102Z,28.40
2022-08-21T09:29:09.733Z,24.35
2022-08-21T09:31:40.404Z,23.92
2022-08-21T09:34:14.325Z,25.00
2022-08-21T09:36:45.995Z,28.48
2022-08-21T09:39:25.798Z,29.13
2022-08-21T09:42:00.407Z,29.40
2022-08-21T09:44:33.005Z,29.50
2022-08-21T09:47:02.946Z,25.85
2022-08-21T09:49:37.088Z,26.83
2022-08-21T09:52:15.532Z,25.38
2022-08-21T09:54:49.068Z,19.40
2022-08-21T09:57:38.804Z,19.33
2022-08-21T10:00:18.127Z,19.90
2022-08-21T10:02:47.435Z,15.40
2022-08-21T10:05:28.811Z,22.02
2022-08-21T10:07:58.134Z,16.38
2022-08-21T10:10:31.230Z,21.00
2022-08-21T10:13:06.049Z,20.65
2022-08-21T10:15:50.111Z,16.98
2022-08-21T10:18:28.065Z,20.33
2022-08-21T10:21:08.142Z,18.02
2022-08-21T10:23:53.200Z,16.17
2022-08-21T10:26:36.557Z,15.50
2022-08-21T10:29:15.884Z,17.77
2022-08-21T10:31:55.132Z,15.98
2022-08-21T10:34:40.288Z,12.02
2022-08-21T10:37:24.096Z,14.10
2022-08-21T10:40:09.821Z,14.75
2022-08-21T10:42:49.914Z,13.13
2022-08-21T10:45:43.155Z,15.68
2022-08-21T10:48:23.784Z,19.23
2022-08-21T10:50:58.346Z,16.33
2022-08-21T10:53:51.325Z,16.50
2022-08-21T10:56:24.921Z,13.93
2022-08-21T10:59:07.527Z,15.30
2022-08-21T11:01:47.990Z,19.10
2022-08-21T11:04:23.509Z,20.55
2022-08-21T11:07:04.595Z,17.52
2022-08-21T11:09:43.965Z,24.30
2022-08-21T11:12:23.961Z,25.63
2022-08-21T11:14:59.631Z,27.08
2022-08-21T11:17:36.817Z,24.20
2022-08-21T11:20:14.405Z,24.48
2022-08-21T11:22:54.544Z,23.80
2022-08-21T11:25:37.176Z,22.23
2022-08-21T11:28:14.387Z,19.63
2022-08-21T11:30:59.008Z,20.42
2022-08-21T11:33:45.982Z,22.35
2022-08-21T11:36:23.089Z,22.23
2022-08-21T11:39:01.798Z,17.55
2022-08-21T11:41:40.127Z,19.40
2022-08-21T11:44:18.681Z,21.67
2022-08-21T11:46:57.098Z,18.13
2022-08-21T11:49:50.149Z,19.30
2022-08-21T11:52:25.315Z,17.85
2022-08-21T11:55:01.378Z,21.27
2022-08-21T11:57:37.525Z,19.95
2022-08-21T12:00:12.084Z,15.82
2022-08-21T12:02:48.818Z,22.67
2022-08-21T12:05:33.949Z,19.95
2022-08-21T12:08:07.233Z,17.67
2022-08-21T12:10:40.217Z,22.98
2022-08-21T12:13:15.506Z,16.38
2022-08-21T12:15:44.743Z,21.80
2022-08-21T12:18:26.097Z,20.45
2022-08-21T12:23:36.128Z,14.27
2022-08-21T12:26:25.771Z,18.67
2022-08-21T12:29:16.793Z,18.33
2022-08-21T12:31:58.949Z,20.90
2022-08-21T12:34:35.360Z,19.50
2022-08-21T12:37:09.417Z,17.73
2022-08-21T12:39:45.814Z,15.65
2022-08-21T12:42:23.359Z,19.17
2022-08-21T12:44:59.135Z,17.17
2022-08-21T12:47:34.040Z,13.63
2022-08-21T13:07:48.937Z,18.52
2022-08-21T13:10:23.314Z,17.48
2022-08-21T13:12:53.732Z,19.25
2022-08-21T13:15:33.172Z,17.73
2022-08-21T13:18:04.642Z,18.42
2022-08-21T13:20:38.091Z,21.10
2022-08-21T13:23:22.843Z,19.25
2022-08-21T13:25:52.749Z,24.05
2022-08-21T13:28:21.974Z,26.20
2022-08-21T13:30:53.724Z,18.17
2022-08-21T13:33:36.454Z,23.58
2022-08-21T13:36:12.458Z,20.33
2022-08-21T13:38:45.314Z,16.70
2022-08-21T13:41:23.254Z,16.52
2022-08-21T13:44:06.678Z,17.88
2022-08-21T13:46:38.498Z,15.40
2022-08-21T13:49:09.236Z,16.92
2022-08-21T13:51:39.175Z,15.50
2022-08-21T13:54:25.300Z,16.27
2022-08-21T13:56:56.187Z,13.32
2022-08-21T13:59:31.025Z,15.65
2022-08-21T14:02:02.664Z,18.45
2022-08-21T14:04:38.761Z,20.55
2022-08-21T14:07:20.844Z,17.17
2022-08-21T14:09:52.292Z,13.35
2022-08-21T14:14:58.063Z,15.25
2022-08-21T14:17:33.711Z,12.90
2022-08-21T14:20:04.131Z,11.02
2022-08-21T14:22:41.826Z,8.55
2022-08-21T14:25:16.621Z,14.27
2022-08-21T14:27:51.944Z,6.53
2022-08-21T14:30:23.793Z,12.75
2022-08-21T14:32:53.003Z,10.05
2022-08-21T14:35:23.817Z,7.03
2022-08-21T14:37:54.943Z,7.82
2022-08-21T14:40:27.968Z,8.90
2022-08-21T14:42:58.781Z,8.15
2022-08-21T14:45:30.881Z,7.05
2022-08-21T14:48:01.454Z,8.63
2022-08-21T14:50:30.610Z,9.23
2022-08-21T14:53:00.962Z,9.45
2022-08-21T14:55:53.135Z,14.82
2022-08-21T14:58:23.516Z,7.35
2022-08-21T15:00:53.169Z,6.97
2022-08-21T15:03:24.365Z,8.90
2022-08-21T15:05:54.085Z,8.57
2022-08-21T15:08:23.458Z,8.52
2022-08-21T15:11:11.229Z,9.90
2022-08-21T15:13:42.372Z,8.38
2022-08-21T15:16:12.004Z,5.10
2022-08-21T15:18:42.502Z,3.95
2022-08-21T15:21:12.075Z,7.83
2022-08-21T15:23:43.910Z,8.68
2022-08-21T15:26:17.149Z,10.20
2022-08-21T15:28:46.626Z,7.72
2022-08-21T15:31:16.031Z,11.23
2022-08-21T15:33:45.584Z,12.25
2022-08-21T15:36:14.929Z,8.20
2022-08-21T15:38:44.457Z,8.13
2022-08-21T15:41:16.652Z,7.43
2022-08-21T15:43:49.308Z,10.75
2022-08-21T15:46:21.263Z,9.45
2022-08-21T15:48:52.846Z,8.98
2022-08-21T15:51:23.839Z,8.23
2022-08-21T15:53:52.981Z,12.07
2022-08-21T15:56:28.024Z,9.13
2022-08-21T15:59:05.899Z,9.68
2022-08-21T16:01:45.001Z,8.20
2022-08-21T16:04:26.098Z,8.98
2022-08-21T16:06:59.983Z,18.88
2022-08-21T16:09:37.447Z,13.45
2022-08-21T16:12:09.748Z,10.55
2022-08-21T16:14:39.638Z,8.57
2022-08-21T16:17:09.197Z,17.98
2022-08-21T16:19:40.295Z,16.20
2022-08-21T16:22:12.230Z,26.27
2022-08-21T16:24:41.996Z,18.23
2022-08-21T16:27:13.689Z,29.15
2022-08-21T16:29:44.753Z,33.28
2022-08-21T16:32:14.992Z,37.95
2022-08-21T16:34:47.734Z,43.03
2022-08-21T16:37:23.861Z,47.28
2022-08-21T16:39:53.891Z,43.15
2022-08-21T16:42:28.880Z,43.78
2022-08-21T16:44:59.087Z,48.17
2022-08-21T16:47:28.401Z,52.45
2022-08-21T16:49:58.113Z,53.80
2022-08-21T16:52:27.607Z,56.65
2022-08-21T16:54:57.139Z,54.42
2022-08-21T16:57:29.822Z,48.92
2022-08-21T16:59:59.187Z,56.42
2022-08-21T17:02:33.589Z,52.75
2022-08-21T17:05:03.162Z,47.28
2022-08-21T17:07:36.841Z,46.20
2022-08-21T17:10:09.691Z,45.17
2022-08-21T17:12:43.395Z,45.28
2022-08-21T17:15:21.471Z,50.55
2022-08-21T17:17:51.300Z,44.00
2022-08-21T17:20:21.590Z,49.75
2022-08-21T17:22:51.566Z,41.42
2022-08-21T17:25:21.093Z,48.08
2022-08-21T17:27:53.110Z,44.75
2022-08-21T17:30:23.050Z,48.58
2022-08-21T17:32:56.051Z,44.25
2022-08-21T17:35:25.342Z,51.70
2022-08-21T17:37:54.646Z,49.33
2022-08-21T17:40:24.359Z,44.05
2022-08-21T17:42:55.653Z,43.08
2022-08-21T17:45:26.086Z,42.63
2022-08-21T17:47:58.939Z,37.15
2022-08-21T17:50:28.466Z,37.85
2022-08-21T17:53:01.245Z,39.22
2022-08-21T17:55:31.371Z,39.42
2022-08-21T17:58:03.473Z,44.25
2022-08-21T18:00:33.913Z,37.00
2022-08-21T18:03:07.385Z,34.08
2022-08-21T18:05:37.106Z,33.63
2022-08-21T18:08:06.386Z,28.55
2022-08-21T18:10:35.920Z,35.53
2022-08-21T18:13:09.830Z,31.48
2022-08-21T18:15:39.285Z,31.08
2022-08-21T18:18:09.009Z,29.55
2022-08-21T18:20:38.714Z,28.95
2022-08-21T18:23:07.998Z,25.17
2022-08-21T18:25:37.792Z,28.17
2022-08-21T18:28:12.303Z,25.60
2022-08-21T18:30:44.181Z,22.83
2022-08-21T18:33:15.525Z,20.40
2022-08-21T18:35:45.148Z,20.38
2022-08-21T18:38:14.821Z,20.77
2022-08-21T18:40:51.498Z,19.17
2022-08-21T18:43:26.557Z,21.80
2022-08-21T18:46:00.223Z,19.52
2022-08-21T18:48:32.363Z,17.98
2022-08-21T18:51:02.468Z,17.23
2022-08-21T18:53:31.740Z,15.48
2022-08-21T18:56:04.888Z,20.55
2022-08-21T18:58:37.273Z,20.30
2022-08-21T19:03:35.930Z,13.85
2022-08-21T19:06:05.628Z,15.52
2022-08-21T19:08:41.192Z,16.02
2022-08-21T19:14:03.229Z,17.80
2022-08-21T19:19:02.418Z,16.83
2022-08-21T19:21:32.001Z,13.35
2022-08-21T19:24:01.197Z,18.23
2022-08-21T19:26:47.725Z,17.60
2022-08-21T19:29:21.843Z,16.67
2022-08-21T19:32:08.697Z,17.02
2022-08-21T19:34:40.650Z,27.00
2022-08-21T19:39:44.848Z,18.35
2022-08-21T19:42:20.999Z,16.45
2022-08-21T19:44:57.399Z,15.38
2022-08-21T19:47:29.464Z,15.07
2022-08-21T19:52:51.713Z,19.73
2022-08-21T19:55:23.254Z,19.13
2022-08-21T19:57:53.564Z,16.00
2022-08-21T20:00:25.254Z,15.52
2022-08-21T20:02:55.137Z,16.20
2022-08-21T20:05:24.354Z,17.83
2022-08-21T20:07:53.687Z,17.17
2022-08-21T20:10:23.209Z,16.00
2022-08-21T20:12:52.735Z,16.40
2022-08-21T20:15:24.703Z,14.98
2022-08-21T20:17:54.001Z,17.20
2022-08-21T20:20:23.633Z,18.33
2022-08-21T20:22:53.073Z,21.52
2022-08-21T20:25:22.475Z,19.25
2022-08-21T20:27:52.273Z,16.23
2022-08-21T20:30:23.497Z,14.82
2022-08-21T20:32:55.262Z,16.30
2022-08-21T20:35:25.176Z,16.95
2022-08-21T20:37:58.819Z,17.75
2022-08-21T20:40:32.772Z,18.85
2022-08-21T20:43:03.241Z,17.15
2022-08-21T20:45:36.084Z,16.40
2022-08-21T20:48:11.253Z,15.82
2022-08-21T20:50:46.326Z,15.75
2022-08-21T20:53:21.698Z,18.20
2022-08-21T20:55:52.860Z,15.05
2022-08-21T20:58:31.425Z,13.85
2022-08-21T21:01:08.282Z,15.90
2022-08-21T21:03:43.298Z,16.73
2022-08-21T21:06:16.194Z,18.35
2022-08-21T21:08:50.249Z,14.60
2022-08-21T21:11:24.797Z,14.07
2022-08-21T21:13:58.388Z,18.77
2022-08-21T21:16:34.975Z,14.73
2022-08-21T21:19:11.917Z,17.40
2022-08-21T21:21:51.502Z,16.30
2022-08-21T21:24:27.568Z,16.15
2022-08-21T21:30:01.602Z,14.88
2022-08-21T21:32:35.616Z,20.98
2022-08-21T21:35:07.385Z,23.58
2022-08-21T21:37:44.073Z,20.48
2022-08-21T21:40:36.789Z,16.88
2022-08-21T21:43:17.300Z,18.70
2022-08-21T21:46:07.061Z,20.02
2022-08-21T21:48:57.852Z,19.83
2022-08-21T21:51:42.436Z,19.95
2022-08-21T21:54:26.425Z,18.55
2022-08-21T21:57:04.953Z,19.80
2022-08-21T21:59:51.263Z,18.98
2022-08-21T22:02:33.989Z,22.02
2022-08-21T22:05:09.066Z,21.48
2022-08-21T22:07:43.031Z,20.80
2022-08-21T22:10:30.773Z,20.13
2022-08-21T22:13:26.276Z,22.30
2022-08-21T22:15:56.546Z,22.73
2022-08-21T22:18:31.387Z,19.83
2022-08-21T22:21:06.958Z,22.58
2022-08-21T22:23:40.506Z,21.23
2022-08-21T22:26:16.609Z,21.85
2022-08-21T22:28:49.453Z,22.20
2022-08-21T22:31:23.118Z,21.95
2022-08-21T22:34:05.370Z,16.83
2022-08-21T22:36:40.774Z,18.92
2022-08-21T22:39:18.473Z,19.35
2022-08-21T22:41:51.368Z,19.27
2022-08-21T22:44:23.725Z,19.90
2022-08-21T22:46:59.158Z,20.27
2022-08-21T22:49:38.593Z,18.77
2022-08-21T22:52:22.541Z,20.38
2022-08-21T22:54:54.037Z,17.88
2022-08-21T22:57:28.659Z,20.80
2022-08-21T23:00:02.649Z,23.48
2022-08-21T23:02:41.050Z,24.08
2022-08-21T23:05:24.699Z,26.83
2022-08-21T23:07:56.569Z,26.38
2022-08-21T23:10:32.913Z,28.52
2022-08-21T23:13:09.305Z,28.33
2022-08-21T23:16:03.526Z,27.70
2022-08-21T23:18:45.454Z,31.00
2022-08-21T23:24:19.495Z,35.00
2022-08-21T23:26:58.241Z,40.30
2022-08-21T23:29:38.626Z,43.40
2022-08-21T23:32:25.124Z,40.13
2022-08-21T23:35:12.845Z,43.08
2022-08-21T23:37:51.423Z,49.67
2022-08-21T23:40:37.192Z,45.35
2022-08-21T23:43:24.600Z,49.90
2022-08-21T23:46:08.825Z,54.85
2022-08-21T23:48:49.270Z,51.17
2022-08-21T23:54:26.597Z,51.85
2022-08-21T23:57:10.593Z,53.83
2022-08-21T23:59:49.534Z,57.65
